SXS8NP LTAC-LOWW
Flight info
| Callsign | SXS8NP |
|---|---|
| Flight time | N/A |
| Altitude | 36000 |
| Route | DEREL UL602 MAKOL DCT POLUN DCT BALUX DCT TORNO DCT NATEX NATEX2W |
| Aircraft | B738/M-SDE2E3FGHIRWXY/LB1 |
Departure
| Time | N/A |
|---|---|
| Airport | Esenboğa International Airport (LTAC) |
Arrival
| Time | 2026-05-03 20:23 |
|---|---|
| Airport | Vienna International Airport (LOWW) |
| Time | Latitude | Longitude | Altitude | Speed | Heading |
|---|---|---|---|---|---|
| 2026-05-03 20:15 | 48.25613 | 16.64919 | 5731 ft | 295 kts | 344° |
| 2026-05-03 20:15 | 48.27597 | 16.64137 | 5488 ft | 294 kts | 344° |
| 2026-05-03 20:15 | 48.29569 | 16.63343 | 5237 ft | 292 kts | 343° |
| 2026-05-03 20:15 | 48.31513 | 16.62540 | 4980 ft | 288 kts | 343° |
| 2026-05-03 20:16 | 48.33437 | 16.61733 | 4732 ft | 287 kts | 343° |
| 2026-05-03 20:16 | 48.35366 | 16.60921 | 4489 ft | 288 kts | 343° |
| 2026-05-03 20:16 | 48.37255 | 16.59940 | 4226 ft | 287 kts | 327° |
| 2026-05-03 20:16 | 48.38710 | 16.57962 | 4029 ft | 284 kts | 298° |
| 2026-05-03 20:17 | 48.39379 | 16.55301 | 3977 ft | 262 kts | 270° |
| 2026-05-03 20:17 | 48.39150 | 16.52755 | 3958 ft | 237 kts | 240° |
| 2026-05-03 20:17 | 48.38176 | 16.50953 | 3964 ft | 215 kts | 208° |
| 2026-05-03 20:17 | 48.36828 | 16.50074 | 3983 ft | 210 kts | 197° |
| 2026-05-03 20:18 | 48.35430 | 16.49395 | 3981 ft | 213 kts | 195° |
| 2026-05-03 20:18 | 48.33993 | 16.48932 | 3962 ft | 213 kts | 176° |
| 2026-05-03 20:18 | 48.32530 | 16.49277 | 3984 ft | 212 kts | 169° |
| 2026-05-03 20:18 | 48.31088 | 16.49757 | 3988 ft | 213 kts | 167° |
| 2026-05-03 20:19 | 48.29656 | 16.50325 | 3990 ft | 213 kts | 166° |
| 2026-05-03 20:19 | 48.28216 | 16.50931 | 3856 ft | 216 kts | 165° |
| 2026-05-03 20:19 | 48.26792 | 16.51535 | 3602 ft | 214 kts | 165° |
| 2026-05-03 20:19 | 48.25357 | 16.52146 | 3341 ft | 209 kts | 166° |
| 2026-05-03 20:20 | 48.23982 | 16.52729 | 3067 ft | 202 kts | 166° |
| 2026-05-03 20:20 | 48.22659 | 16.53289 | 2797 ft | 194 kts | 166° |
| 2026-05-03 20:20 | 48.21403 | 16.53822 | 2535 ft | 180 kts | 166° |
| 2026-05-03 20:20 | 48.20248 | 16.54311 | 2325 ft | 165 kts | 166° |
| 2026-05-03 20:21 | 48.19195 | 16.54758 | 2125 ft | 148 kts | 165° |
| 2026-05-03 20:21 | 48.18252 | 16.55157 | 1908 ft | 134 kts | 165° |
| 2026-05-03 20:21 | 48.17363 | 16.55533 | 1739 ft | 132 kts | 165° |
| 2026-05-03 20:21 | 48.16483 | 16.55907 | 1565 ft | 136 kts | 165° |
| 2026-05-03 20:22 | 48.15565 | 16.56295 | 1380 ft | 140 kts | 163° |
| 2026-05-03 20:22 | 48.14600 | 16.56705 | 1186 ft | 147 kts | 163° |
| 2026-05-03 20:22 | 48.13629 | 16.57100 | 965 ft | 141 kts | 162° |
| 2026-05-03 20:22 | 48.12706 | 16.57502 | 737 ft | 135 kts | 162° |
| 2026-05-03 20:23 | 48.11818 | 16.57884 | 619 ft | 131 kts | 161° |
| 2026-05-03 20:23 | 48.11051 | 16.58212 | 603 ft | 94 kts | 164° |
| 2026-05-03 20:23 | 48.10576 | 16.58411 | 597 ft | 46 kts | 164° |
| 2026-05-03 20:23 | 48.10329 | 16.58464 | 597 ft | 22 kts | 184° |
| 2026-05-03 20:24 | 48.10204 | 16.58431 | 596 ft | 12 kts | 198° |
| 2026-05-03 20:24 | 48.10167 | 16.58412 | 597 ft | 4 kts | 199° |
| 2026-05-03 20:25 | 48.10165 | 16.58411 | 597 ft | 1 kts | 199° |
| 2026-05-03 20:25 | 48.10150 | 16.58403 | 598 ft | 4 kts | 199° |
| 2026-05-03 20:25 | 48.10131 | 16.58368 | 599 ft | 5 kts | 258° |
| 2026-05-03 20:26 | 48.10156 | 16.58316 | 600 ft | 9 kts | 331° |
| 2026-05-03 20:26 | 48.10232 | 16.58280 | 600 ft | 14 kts | 343° |
| 2026-05-03 20:26 | 48.10340 | 16.58233 | 599 ft | 17 kts | 343° |
| 2026-05-03 20:26 | 48.10451 | 16.58185 | 602 ft | 16 kts | 343° |
| 2026-05-03 20:27 | 48.10558 | 16.58141 | 603 ft | 16 kts | 345° |
| 2026-05-03 20:27 | 48.10661 | 16.58097 | 602 ft | 15 kts | 343° |
| 2026-05-03 20:27 | 48.10759 | 16.58054 | 603 ft | 14 kts | 344° |
| 2026-05-03 20:27 | 48.10854 | 16.58015 | 602 ft | 14 kts | 345° |
| 2026-05-03 20:28 | 48.10951 | 16.57974 | 603 ft | 15 kts | 343° |
| 2026-05-03 20:28 | 48.11064 | 16.57922 | 602 ft | 19 kts | 337° |
| 2026-05-03 20:28 | 48.11144 | 16.57756 | 615 ft | 20 kts | 296° |
| 2026-05-03 20:28 | 48.11206 | 16.57570 | 607 ft | 20 kts | 297° |
| 2026-05-03 20:29 | 48.11265 | 16.57389 | 611 ft | 19 kts | 296° |
| 2026-05-03 20:29 | 48.11322 | 16.57214 | 613 ft | 18 kts | 295° |
| 2026-05-03 20:29 | 48.11377 | 16.57045 | 610 ft | 18 kts | 296° |
| 2026-05-03 20:29 | 48.11433 | 16.56891 | 602 ft | 12 kts | 317° |
| 2026-05-03 20:30 | 48.11511 | 16.56905 | 601 ft | 12 kts | 25° |
| 2026-05-03 20:30 | 48.11585 | 16.56892 | 601 ft | 12 kts | 313° |
| 2026-05-03 20:30 | 48.11594 | 16.56840 | 601 ft | 4 kts | 234° |
| 2026-05-03 20:30 | 48.11573 | 16.56817 | 601 ft | 4 kts | 217° |
| 2026-05-03 20:31 | 48.11552 | 16.56801 | 601 ft | 4 kts | 202° |
| 2026-05-03 20:31 | 48.11541 | 16.56794 | 601 ft | 0 kts | 205° |